sensor_id;sensor_type;location;lat;lon;timestamp;P1;durP1;ratioP1;P2;durP2;ratioP2
3817;SDS011;1924;48.078;11.516;2022-12-07T00:01:31;24.80;;;0.70;;
3817;SDS011;1924;48.078;11.516;2022-12-07T00:03:59;24.80;;;0.70;;
3817;SDS011;1924;48.078;11.516;2022-12-07T00:06:31;24.60;;;0.70;;
3817;SDS011;1924;48.078;11.516;2022-12-07T00:08:58;24.70;;;0.70;;
3817;SDS011;1924;48.078;11.516;2022-12-07T00:11:25;24.80;;;0.70;;
3817;SDS011;1924;48.078;11.516;2022-12-07T00:13:52;24.77;;;0.70;;
3817;SDS011;1924;48.078;11.516;2022-12-07T00:16:21;24.70;;;0.70;;
3817;SDS011;1924;48.078;11.516;2022-12-07T00:18:49;24.80;;;0.70;;
3817;SDS011;1924;48.078;11.516;2022-12-07T00:21:18;24.70;;;0.70;;
3817;SDS011;1924;48.078;11.516;2022-12-07T00:23:49;24.77;;;0.70;;
3817;SDS011;1924;48.078;11.516;2022-12-07T00:26:18;24.80;;;0.70;;
3817;SDS011;1924;48.078;11.516;2022-12-07T00:28:45;24.70;;;0.70;;
3817;SDS011;1924;48.078;11.516;2022-12-07T00:31:13;24.70;;;0.70;;
3817;SDS011;1924;48.078;11.516;2022-12-07T00:33:40;24.60;;;0.70;;
3817;SDS011;1924;48.078;11.516;2022-12-07T00:36:08;24.70;;;0.73;;
3817;SDS011;1924;48.078;11.516;2022-12-07T00:38:37;24.80;;;0.70;;
3817;SDS011;1924;48.078;11.516;2022-12-07T00:41:06;24.87;;;0.80;;
3817;SDS011;1924;48.078;11.516;2022-12-07T00:43:36;24.50;;;0.70;;
3817;SDS011;1924;48.078;11.516;2022-12-07T00:46:03;24.77;;;0.80;;
3817;SDS011;1924;48.078;11.516;2022-12-07T00:48:30;24.67;;;0.77;;
3817;SDS011;1924;48.078;11.516;2022-12-07T00:50:57;24.70;;;0.70;;
3817;SDS011;1924;48.078;11.516;2022-12-07T00:53:24;24.60;;;0.70;;
3817;SDS011;1924;48.078;11.516;2022-12-07T00:55:52;24.70;;;0.70;;
3817;SDS011;1924;48.078;11.516;2022-12-07T00:58:21;24.80;;;0.70;;
3817;SDS011;1924;48.078;11.516;2022-12-07T01:00:48;24.50;;;0.70;;
3817;SDS011;1924;48.078;11.516;2022-12-07T01:03:15;24.70;;;0.70;;
3817;SDS011;1924;48.078;11.516;2022-12-07T01:05:48;24.60;;;0.80;;
3817;SDS011;1924;48.078;11.516;2022-12-07T01:08:16;24.70;;;0.73;;
3817;SDS011;1924;48.078;11.516;2022-12-07T01:10:42;24.70;;;0.77;;
3817;SDS011;1924;48.078;11.516;2022-12-07T01:13:09;24.73;;;0.70;;
3817;SDS011;1924;48.078;11.516;2022-12-07T01:15:39;24.60;;;0.70;;
3817;SDS011;1924;48.078;11.516;2022-12-07T01:18:06;24.70;;;0.73;;
3817;SDS011;1924;48.078;11.516;2022-12-07T01:20:33;24.80;;;0.80;;
3817;SDS011;1924;48.078;11.516;2022-12-07T01:23:01;24.70;;;0.73;;
3817;SDS011;1924;48.078;11.516;2022-12-07T01:25:28;24.67;;;0.70;;
3817;SDS011;1924;48.078;11.516;2022-12-07T01:27:55;24.50;;;0.70;;
3817;SDS011;1924;48.078;11.516;2022-12-07T01:30:22;24.70;;;0.70;;
3817;SDS011;1924;48.078;11.516;2022-12-07T01:32:50;24.70;;;0.70;;
3817;SDS011;1924;48.078;11.516;2022-12-07T01:35:16;24.50;;;0.70;;
3817;SDS011;1924;48.078;11.516;2022-12-07T01:37:43;24.67;;;0.70;;
3817;SDS011;1924;48.078;11.516;2022-12-07T01:40:10;24.70;;;0.77;;
3817;SDS011;1924;48.078;11.516;2022-12-07T01:42:37;24.70;;;0.70;;
3817;SDS011;1924;48.078;11.516;2022-12-07T01:48:06;24.60;;;0.70;;
3817;SDS011;1924;48.078;11.516;2022-12-07T01:50:35;24.70;;;0.80;;
3817;SDS011;1924;48.078;11.516;2022-12-07T01:53:04;24.80;;;0.70;;
3817;SDS011;1924;48.078;11.516;2022-12-07T01:55:33;24.80;;;0.70;;
3817;SDS011;1924;48.078;11.516;2022-12-07T01:58:02;24.70;;;0.70;;
3817;SDS011;1924;48.078;11.516;2022-12-07T02:00:29;24.60;;;0.70;;
3817;SDS011;1924;48.078;11.516;2022-12-07T02:02:57;24.50;;;0.70;;
3817;SDS011;1924;48.078;11.516;2022-12-07T02:05:31;24.80;;;0.70;;
3817;SDS011;1924;48.078;11.516;2022-12-07T02:07:59;24.67;;;0.80;;
3817;SDS011;1924;48.078;11.516;2022-12-07T02:10:28;24.70;;;0.70;;
3817;SDS011;1924;48.078;11.516;2022-12-07T02:12:57;24.50;;;0.70;;
3817;SDS011;1924;48.078;11.516;2022-12-07T02:15:28;24.63;;;0.70;;
3817;SDS011;1924;48.078;11.516;2022-12-07T02:18:05;24.70;;;0.73;;
3817;SDS011;1924;48.078;11.516;2022-12-07T02:20:36;24.77;;;0.70;;
3817;SDS011;1924;48.078;11.516;2022-12-07T02:23:31;24.80;;;0.80;;
3817;SDS011;1924;48.078;11.516;2022-12-07T02:26:48;24.77;;;0.70;;
3817;SDS011;1924;48.078;11.516;2022-12-07T02:29:46;24.80;;;0.70;;
3817;SDS011;1924;48.078;11.516;2022-12-07T02:32:20;24.70;;;0.70;;
3817;SDS011;1924;48.078;11.516;2022-12-07T02:34:53;24.70;;;0.70;;
3817;SDS011;1924;48.078;11.516;2022-12-07T02:37:28;24.80;;;0.70;;
3817;SDS011;1924;48.078;11.516;2022-12-07T02:40:01;24.80;;;0.77;;
3817;SDS011;1924;48.078;11.516;2022-12-07T02:42:35;24.60;;;0.70;;
3817;SDS011;1924;48.078;11.516;2022-12-07T02:45:09;24.70;;;0.70;;
3817;SDS011;1924;48.078;11.516;2022-12-07T02:47:39;24.60;;;0.70;;
3817;SDS011;1924;48.078;11.516;2022-12-07T02:50:07;24.70;;;0.70;;
3817;SDS011;1924;48.078;11.516;2022-12-07T02:52:35;24.50;;;0.70;;
3817;SDS011;1924;48.078;11.516;2022-12-07T02:55:02;24.60;;;0.70;;
3817;SDS011;1924;48.078;11.516;2022-12-07T02:57:41;24.77;;;0.70;;
3817;SDS011;1924;48.078;11.516;2022-12-07T03:00:21;24.60;;;0.80;;
3817;SDS011;1924;48.078;11.516;2022-12-07T03:02:50;24.80;;;0.70;;
3817;SDS011;1924;48.078;11.516;2022-12-07T03:05:27;24.77;;;0.70;;
3817;SDS011;1924;48.078;11.516;2022-12-07T03:08:04;24.80;;;0.70;;
3817;SDS011;1924;48.078;11.516;2022-12-07T03:10:39;24.80;;;0.70;;
3817;SDS011;1924;48.078;11.516;2022-12-07T03:13:12;24.50;;;0.70;;
3817;SDS011;1924;48.078;11.516;2022-12-07T03:15:48;24.70;;;0.70;;
3817;SDS011;1924;48.078;11.516;2022-12-07T03:18:18;24.60;;;0.70;;
3817;SDS011;1924;48.078;11.516;2022-12-07T03:20:50;24.70;;;0.70;;
3817;SDS011;1924;48.078;11.516;2022-12-07T03:23:21;24.70;;;0.70;;
3817;SDS011;1924;48.078;11.516;2022-12-07T03:25:52;24.60;;;0.70;;
3817;SDS011;1924;48.078;11.516;2022-12-07T03:28:24;24.67;;;0.70;;
3817;SDS011;1924;48.078;11.516;2022-12-07T03:30:56;24.70;;;0.70;;
3817;SDS011;1924;48.078;11.516;2022-12-07T03:33:27;24.60;;;0.70;;
3817;SDS011;1924;48.078;11.516;2022-12-07T03:35:59;24.70;;;0.70;;
3817;SDS011;1924;48.078;11.516;2022-12-07T03:38:31;24.77;;;0.73;;
3817;SDS011;1924;48.078;11.516;2022-12-07T03:41:04;24.43;;;0.70;;
3817;SDS011;1924;48.078;11.516;2022-12-07T03:43:34;24.70;;;0.70;;
3817;SDS011;1924;48.078;11.516;2022-12-07T03:46:06;24.60;;;0.70;;
3817;SDS011;1924;48.078;11.516;2022-12-07T03:48:42;24.70;;;0.70;;
3817;SDS011;1924;48.078;11.516;2022-12-07T03:51:20;24.60;;;0.70;;
3817;SDS011;1924;48.078;11.516;2022-12-07T03:53:52;24.70;;;0.70;;
3817;SDS011;1924;48.078;11.516;2022-12-07T03:56:23;24.70;;;0.70;;
3817;SDS011;1924;48.078;11.516;2022-12-07T03:58:52;24.60;;;0.70;;
3817;SDS011;1924;48.078;11.516;2022-12-07T04:01:22;24.60;;;0.70;;
3817;SDS011;1924;48.078;11.516;2022-12-07T04:03:49;24.60;;;0.70;;
3817;SDS011;1924;48.078;11.516;2022-12-07T04:06:16;24.60;;;0.70;;
3817;SDS011;1924;48.078;11.516;2022-12-07T04:08:44;24.57;;;0.80;;
3817;SDS011;1924;48.078;11.516;2022-12-07T04:11:10;24.70;;;0.70;;
3817;SDS011;1924;48.078;11.516;2022-12-07T04:13:37;24.63;;;0.70;;
3817;SDS011;1924;48.078;11.516;2022-12-07T04:16:18;24.67;;;0.70;;
3817;SDS011;1924;48.078;11.516;2022-12-07T04:18:46;24.70;;;0.70;;
3817;SDS011;1924;48.078;11.516;2022-12-07T04:21:13;24.70;;;0.70;;
3817;SDS011;1924;48.078;11.516;2022-12-07T04:23:39;24.60;;;0.70;;
3817;SDS011;1924;48.078;11.516;2022-12-07T04:26:06;24.67;;;0.77;;
3817;SDS011;1924;48.078;11.516;2022-12-07T04:28:33;24.60;;;0.70;;
3817;SDS011;1924;48.078;11.516;2022-12-07T04:31:00;24.40;;;0.70;;
3817;SDS011;1924;48.078;11.516;2022-12-07T04:33:27;24.70;;;0.70;;
3817;SDS011;1924;48.078;11.516;2022-12-07T04:35:55;24.50;;;0.70;;
3817;SDS011;1924;48.078;11.516;2022-12-07T04:38:22;24.70;;;0.70;;
3817;SDS011;1924;48.078;11.516;2022-12-07T04:40:48;24.80;;;0.70;;
3817;SDS011;1924;48.078;11.516;2022-12-07T04:43:15;24.70;;;0.73;;
3817;SDS011;1924;48.078;11.516;2022-12-07T04:45:45;24.60;;;0.70;;
3817;SDS011;1924;48.078;11.516;2022-12-07T05:01:11;24.60;;;0.70;;
3817;SDS011;1924;48.078;11.516;2022-12-07T05:03:39;24.60;;;0.70;;
3817;SDS011;1924;48.078;11.516;2022-12-07T05:06:06;24.70;;;0.77;;
3817;SDS011;1924;48.078;11.516;2022-12-07T05:08:33;24.67;;;0.80;;
3817;SDS011;1924;48.078;11.516;2022-12-07T05:11:00;24.80;;;0.70;;
3817;SDS011;1924;48.078;11.516;2022-12-07T05:13:28;24.70;;;0.70;;
3817;SDS011;1924;48.078;11.516;2022-12-07T05:15:55;24.60;;;0.80;;
3817;SDS011;1924;48.078;11.516;2022-12-07T05:18:23;24.50;;;0.70;;
3817;SDS011;1924;48.078;11.516;2022-12-07T05:20:51;24.67;;;0.70;;
3817;SDS011;1924;48.078;11.516;2022-12-07T05:23:18;24.70;;;0.80;;
3817;SDS011;1924;48.078;11.516;2022-12-07T05:25:44;24.67;;;0.73;;
3817;SDS011;1924;48.078;11.516;2022-12-07T05:28:12;24.70;;;0.70;;
3817;SDS011;1924;48.078;11.516;2022-12-07T05:30:39;24.60;;;0.77;;
3817;SDS011;1924;48.078;11.516;2022-12-07T05:33:05;24.70;;;0.80;;
3817;SDS011;1924;48.078;11.516;2022-12-07T05:35:34;24.70;;;0.80;;
3817;SDS011;1924;48.078;11.516;2022-12-07T05:38:02;24.70;;;0.70;;
3817;SDS011;1924;48.078;11.516;2022-12-07T05:40:29;24.70;;;0.70;;
3817;SDS011;1924;48.078;11.516;2022-12-07T05:42:56;24.67;;;0.73;;
3817;SDS011;1924;48.078;11.516;2022-12-07T05:45:23;24.70;;;0.70;;
3817;SDS011;1924;48.078;11.516;2022-12-07T05:47:49;24.70;;;0.70;;
3817;SDS011;1924;48.078;11.516;2022-12-07T05:50:16;24.63;;;0.73;;
3817;SDS011;1924;48.078;11.516;2022-12-07T05:52:44;24.70;;;0.70;;
3817;SDS011;1924;48.078;11.516;2022-12-07T05:55:11;24.60;;;0.80;;
3817;SDS011;1924;48.078;11.516;2022-12-07T05:57:38;24.70;;;0.70;;
3817;SDS011;1924;48.078;11.516;2022-12-07T06:00:05;24.70;;;0.70;;
3817;SDS011;1924;48.078;11.516;2022-12-07T06:02:31;24.70;;;0.70;;
3817;SDS011;1924;48.078;11.516;2022-12-07T06:04:58;24.60;;;0.70;;
3817;SDS011;1924;48.078;11.516;2022-12-07T06:07:25;24.60;;;0.70;;
3817;SDS011;1924;48.078;11.516;2022-12-07T06:09:53;24.60;;;0.80;;
3817;SDS011;1924;48.078;11.516;2022-12-07T06:12:20;24.70;;;0.70;;
3817;SDS011;1924;48.078;11.516;2022-12-07T06:15:02;24.60;;;0.70;;
3817;SDS011;1924;48.078;11.516;2022-12-07T06:17:29;24.60;;;0.80;;
3817;SDS011;1924;48.078;11.516;2022-12-07T06:19:56;24.40;;;0.80;;
3817;SDS011;1924;48.078;11.516;2022-12-07T06:22:23;24.50;;;0.70;;
3817;SDS011;1924;48.078;11.516;2022-12-07T06:24:49;24.50;;;0.70;;
3817;SDS011;1924;48.078;11.516;2022-12-07T06:27:18;24.60;;;0.70;;
3817;SDS011;1924;48.078;11.516;2022-12-07T06:29:44;24.60;;;0.73;;
3817;SDS011;1924;48.078;11.516;2022-12-07T06:32:11;24.50;;;0.80;;
3817;SDS011;1924;48.078;11.516;2022-12-07T06:34:38;24.70;;;0.70;;
3817;SDS011;1924;48.078;11.516;2022-12-07T06:37:05;24.63;;;0.73;;
3817;SDS011;1924;48.078;11.516;2022-12-07T06:39:31;24.70;;;0.70;;
3817;SDS011;1924;48.078;11.516;2022-12-07T06:41:58;24.60;;;0.70;;
3817;SDS011;1924;48.078;11.516;2022-12-07T06:44:26;24.73;;;0.70;;
3817;SDS011;1924;48.078;11.516;2022-12-07T06:46:53;24.60;;;0.70;;
3817;SDS011;1924;48.078;11.516;2022-12-07T06:49:21;24.50;;;0.70;;
3817;SDS011;1924;48.078;11.516;2022-12-07T06:51:48;24.40;;;0.70;;
3817;SDS011;1924;48.078;11.516;2022-12-07T06:54:15;24.67;;;0.80;;
3817;SDS011;1924;48.078;11.516;2022-12-07T06:56:43;24.50;;;0.70;;
3817;SDS011;1924;48.078;11.516;2022-12-07T06:59:10;24.50;;;0.70;;
3817;SDS011;1924;48.078;11.516;2022-12-07T07:01:38;24.60;;;0.80;;
3817;SDS011;1924;48.078;11.516;2022-12-07T07:04:05;24.50;;;0.70;;
3817;SDS011;1924;48.078;11.516;2022-12-07T07:06:31;24.60;;;0.70;;
3817;SDS011;1924;48.078;11.516;2022-12-07T07:08:58;24.60;;;0.70;;
3817;SDS011;1924;48.078;11.516;2022-12-07T07:11:25;24.57;;;0.70;;
3817;SDS011;1924;48.078;11.516;2022-12-07T07:13:52;24.50;;;0.70;;
3817;SDS011;1924;48.078;11.516;2022-12-07T07:16:21;24.50;;;0.70;;
3817;SDS011;1924;48.078;11.516;2022-12-07T07:18:50;24.50;;;0.70;;
3817;SDS011;1924;48.078;11.516;2022-12-07T07:21:17;24.40;;;0.77;;
3817;SDS011;1924;48.078;11.516;2022-12-07T07:23:43;24.60;;;0.73;;
3817;SDS011;1924;48.078;11.516;2022-12-07T07:26:10;24.50;;;0.73;;
3817;SDS011;1924;48.078;11.516;2022-12-07T07:28:40;24.50;;;0.70;;
3817;SDS011;1924;48.078;11.516;2022-12-07T07:31:07;24.70;;;0.70;;
3817;SDS011;1924;48.078;11.516;2022-12-07T07:33:34;24.60;;;0.70;;
3817;SDS011;1924;48.078;11.516;2022-12-07T07:36:02;24.57;;;0.80;;
3817;SDS011;1924;48.078;11.516;2022-12-07T07:38:29;24.40;;;0.70;;
3817;SDS011;1924;48.078;11.516;2022-12-07T07:40:55;24.60;;;0.80;;
3817;SDS011;1924;48.078;11.516;2022-12-07T07:43:22;24.50;;;0.73;;
3817;SDS011;1924;48.078;11.516;2022-12-07T07:45:49;24.67;;;0.80;;
3817;SDS011;1924;48.078;11.516;2022-12-07T07:48:16;24.50;;;0.70;;
3817;SDS011;1924;48.078;11.516;2022-12-07T07:50:42;24.50;;;0.80;;
3817;SDS011;1924;48.078;11.516;2022-12-07T07:53:11;24.50;;;0.80;;
3817;SDS011;1924;48.078;11.516;2022-12-07T07:55:37;24.70;;;0.70;;
3817;SDS011;1924;48.078;11.516;2022-12-07T07:58:04;24.50;;;0.70;;
3817;SDS011;1924;48.078;11.516;2022-12-07T08:00:31;24.50;;;0.80;;
3817;SDS011;1924;48.078;11.516;2022-12-07T08:02:58;24.50;;;0.70;;
3817;SDS011;1924;48.078;11.516;2022-12-07T08:05:24;24.60;;;0.70;;
3817;SDS011;1924;48.078;11.516;2022-12-07T08:07:51;24.60;;;0.70;;
3817;SDS011;1924;48.078;11.516;2022-12-07T08:10:19;24.60;;;0.70;;
3817;SDS011;1924;48.078;11.516;2022-12-07T08:12:46;24.60;;;0.70;;
3817;SDS011;1924;48.078;11.516;2022-12-07T08:15:30;24.57;;;0.70;;
3817;SDS011;1924;48.078;11.516;2022-12-07T08:17:57;24.60;;;0.70;;
3817;SDS011;1924;48.078;11.516;2022-12-07T08:20:24;24.50;;;0.70;;
3817;SDS011;1924;48.078;11.516;2022-12-07T08:22:51;24.50;;;0.70;;
3817;SDS011;1924;48.078;11.516;2022-12-07T08:25:19;24.50;;;0.80;;
3817;SDS011;1924;48.078;11.516;2022-12-07T08:27:47;24.40;;;0.70;;
3817;SDS011;1924;48.078;11.516;2022-12-07T08:30:14;24.50;;;0.70;;
3817;SDS011;1924;48.078;11.516;2022-12-07T08:32:41;24.67;;;0.70;;
3817;SDS011;1924;48.078;11.516;2022-12-07T08:35:08;24.50;;;0.70;;
3817;SDS011;1924;48.078;11.516;2022-12-07T08:37:35;24.60;;;0.70;;
3817;SDS011;1924;48.078;11.516;2022-12-07T08:40:03;24.57;;;0.70;;
3817;SDS011;1924;48.078;11.516;2022-12-07T08:42:32;24.50;;;0.70;;
3817;SDS011;1924;48.078;11.516;2022-12-07T08:45:05;24.40;;;0.70;;
3817;SDS011;1924;48.078;11.516;2022-12-07T08:47:33;24.60;;;0.70;;
3817;SDS011;1924;48.078;11.516;2022-12-07T08:50:00;24.50;;;0.70;;
3817;SDS011;1924;48.078;11.516;2022-12-07T08:52:28;24.50;;;0.80;;
3817;SDS011;1924;48.078;11.516;2022-12-07T08:54:56;24.50;;;0.70;;
3817;SDS011;1924;48.078;11.516;2022-12-07T08:57:23;24.50;;;0.70;;
3817;SDS011;1924;48.078;11.516;2022-12-07T08:59:51;24.50;;;0.70;;
3817;SDS011;1924;48.078;11.516;2022-12-07T09:02:18;24.40;;;0.70;;
3817;SDS011;1924;48.078;11.516;2022-12-07T09:04:45;24.60;;;0.70;;
3817;SDS011;1924;48.078;11.516;2022-12-07T09:07:12;24.50;;;0.70;;
3817;SDS011;1924;48.078;11.516;2022-12-07T09:09:38;24.50;;;0.70;;
3817;SDS011;1924;48.078;11.516;2022-12-07T09:12:05;24.50;;;0.70;;
3817;SDS011;1924;48.078;11.516;2022-12-07T09:14:32;24.60;;;0.70;;
3817;SDS011;1924;48.078;11.516;2022-12-07T09:17:05;24.70;;;0.70;;
3817;SDS011;1924;48.078;11.516;2022-12-07T09:19:33;24.50;;;0.70;;
3817;SDS011;1924;48.078;11.516;2022-12-07T09:22:00;24.40;;;0.70;;
3817;SDS011;1924;48.078;11.516;2022-12-07T09:24:26;24.67;;;0.70;;
3817;SDS011;1924;48.078;11.516;2022-12-07T09:26:53;24.60;;;0.70;;
3817;SDS011;1924;48.078;11.516;2022-12-07T09:29:20;24.40;;;0.70;;
3817;SDS011;1924;48.078;11.516;2022-12-07T09:31:47;24.50;;;0.70;;
3817;SDS011;1924;48.078;11.516;2022-12-07T09:34:15;24.50;;;0.70;;
3817;SDS011;1924;48.078;11.516;2022-12-07T09:36:42;24.60;;;0.70;;
3817;SDS011;1924;48.078;11.516;2022-12-07T09:39:09;24.60;;;0.70;;
3817;SDS011;1924;48.078;11.516;2022-12-07T09:41:37;24.50;;;0.70;;
3817;SDS011;1924;48.078;11.516;2022-12-07T09:44:06;24.57;;;0.70;;
3817;SDS011;1924;48.078;11.516;2022-12-07T09:46:36;24.60;;;0.70;;
3817;SDS011;1924;48.078;11.516;2022-12-07T09:49:08;24.40;;;0.70;;
3817;SDS011;1924;48.078;11.516;2022-12-07T09:51:39;24.50;;;0.70;;
3817;SDS011;1924;48.078;11.516;2022-12-07T09:54:07;24.50;;;0.70;;
3817;SDS011;1924;48.078;11.516;2022-12-07T09:56:38;24.60;;;0.70;;
3817;SDS011;1924;48.078;11.516;2022-12-07T09:59:04;24.70;;;0.70;;
3817;SDS011;1924;48.078;11.516;2022-12-07T10:01:32;24.50;;;0.70;;
3817;SDS011;1924;48.078;11.516;2022-12-07T10:04:01;24.60;;;0.70;;
3817;SDS011;1924;48.078;11.516;2022-12-07T10:06:35;24.80;;;0.70;;
3817;SDS011;1924;48.078;11.516;2022-12-07T10:09:07;24.53;;;0.70;;
3817;SDS011;1924;48.078;11.516;2022-12-07T10:14:28;24.67;;;0.70;;
3817;SDS011;1924;48.078;11.516;2022-12-07T10:16:55;24.60;;;0.70;;
3817;SDS011;1924;48.078;11.516;2022-12-07T10:19:23;24.60;;;0.70;;
3817;SDS011;1924;48.078;11.516;2022-12-07T10:22:02;24.80;;;0.80;;
3817;SDS011;1924;48.078;11.516;2022-12-07T10:24:32;24.50;;;0.70;;
3817;SDS011;1924;48.078;11.516;2022-12-07T10:26:59;24.70;;;0.70;;
3817;SDS011;1924;48.078;11.516;2022-12-07T10:29:28;24.70;;;0.77;;
3817;SDS011;1924;48.078;11.516;2022-12-07T10:31:58;24.70;;;0.70;;
3817;SDS011;1924;48.078;11.516;2022-12-07T10:34:27;24.70;;;0.70;;
3817;SDS011;1924;48.078;11.516;2022-12-07T10:37:06;24.60;;;0.70;;
3817;SDS011;1924;48.078;11.516;2022-12-07T10:39:47;24.70;;;0.70;;
3817;SDS011;1924;48.078;11.516;2022-12-07T10:42:16;24.80;;;0.70;;
3817;SDS011;1924;48.078;11.516;2022-12-07T10:44:48;24.80;;;0.70;;
3817;SDS011;1924;48.078;11.516;2022-12-07T10:47:20;24.83;;;0.70;;
3817;SDS011;1924;48.078;11.516;2022-12-07T10:52:57;24.80;;;0.70;;
3817;SDS011;1924;48.078;11.516;2022-12-07T10:55:56;24.77;;;0.70;;
3817;SDS011;1924;48.078;11.516;2022-12-07T10:58:44;24.60;;;0.70;;
3817;SDS011;1924;48.078;11.516;2022-12-07T11:01:22;24.77;;;0.70;;
3817;SDS011;1924;48.078;11.516;2022-12-07T11:03:59;24.90;;;0.70;;
3817;SDS011;1924;48.078;11.516;2022-12-07T11:06:43;24.80;;;0.70;;
3817;SDS011;1924;48.078;11.516;2022-12-07T11:09:24;24.80;;;0.70;;
3817;SDS011;1924;48.078;11.516;2022-12-07T11:12:23;24.90;;;0.70;;
3817;SDS011;1924;48.078;11.516;2022-12-07T11:14:56;24.90;;;0.70;;
3817;SDS011;1924;48.078;11.516;2022-12-07T11:17:31;25.10;;;0.70;;
3817;SDS011;1924;48.078;11.516;2022-12-07T11:20:05;25.10;;;0.73;;
3817;SDS011;1924;48.078;11.516;2022-12-07T11:22:47;25.27;;;0.70;;
3817;SDS011;1924;48.078;11.516;2022-12-07T11:25:22;25.10;;;0.70;;
3817;SDS011;1924;48.078;11.516;2022-12-07T11:28:01;25.20;;;0.77;;
3817;SDS011;1924;48.078;11.516;2022-12-07T11:30:37;25.07;;;0.70;;
3817;SDS011;1924;48.078;11.516;2022-12-07T11:33:11;24.90;;;0.70;;
3817;SDS011;1924;48.078;11.516;2022-12-07T11:35:47;24.90;;;0.70;;
3817;SDS011;1924;48.078;11.516;2022-12-07T11:38:23;24.90;;;0.70;;
3817;SDS011;1924;48.078;11.516;2022-12-07T11:40:58;24.90;;;0.70;;
3817;SDS011;1924;48.078;11.516;2022-12-07T11:43:40;24.70;;;0.70;;
3817;SDS011;1924;48.078;11.516;2022-12-07T11:46:16;24.80;;;0.70;;
3817;SDS011;1924;48.078;11.516;2022-12-07T11:48:45;24.60;;;0.80;;
3817;SDS011;1924;48.078;11.516;2022-12-07T11:51:17;24.60;;;0.70;;
3817;SDS011;1924;48.078;11.516;2022-12-07T11:53:46;24.60;;;0.70;;
3817;SDS011;1924;48.078;11.516;2022-12-07T11:56:20;24.50;;;0.70;;
3817;SDS011;1924;48.078;11.516;2022-12-07T11:58:51;24.60;;;0.70;;
3817;SDS011;1924;48.078;11.516;2022-12-07T12:01:28;24.50;;;0.70;;
3817;SDS011;1924;48.078;11.516;2022-12-07T12:04:05;24.57;;;0.70;;
3817;SDS011;1924;48.078;11.516;2022-12-07T12:06:45;24.60;;;0.70;;
3817;SDS011;1924;48.078;11.516;2022-12-07T12:09:12;24.50;;;0.70;;
3817;SDS011;1924;48.078;11.516;2022-12-07T12:11:46;24.57;;;0.70;;
3817;SDS011;1924;48.078;11.516;2022-12-07T12:14:39;24.33;;;0.70;;
3817;SDS011;1924;48.078;11.516;2022-12-07T12:17:21;24.40;;;0.70;;
3817;SDS011;1924;48.078;11.516;2022-12-07T12:20:04;24.40;;;0.70;;
3817;SDS011;1924;48.078;11.516;2022-12-07T12:22:41;24.50;;;0.70;;
3817;SDS011;1924;48.078;11.516;2022-12-07T12:25:13;24.30;;;0.70;;
3817;SDS011;1924;48.078;11.516;2022-12-07T12:27:46;24.40;;;0.70;;
3817;SDS011;1924;48.078;11.516;2022-12-07T12:30:25;24.50;;;0.73;;
3817;SDS011;1924;48.078;11.516;2022-12-07T12:33:01;24.60;;;0.70;;
3817;SDS011;1924;48.078;11.516;2022-12-07T12:35:30;24.40;;;0.70;;
3817;SDS011;1924;48.078;11.516;2022-12-07T12:40:53;24.60;;;0.70;;
3817;SDS011;1924;48.078;11.516;2022-12-07T12:49:19;24.30;;;0.73;;
3817;SDS011;1924;48.078;11.516;2022-12-07T12:52:01;24.50;;;0.70;;
3817;SDS011;1924;48.078;11.516;2022-12-07T12:55:11;24.50;;;0.70;;
3817;SDS011;1924;48.078;11.516;2022-12-07T12:57:43;24.50;;;0.70;;
3817;SDS011;1924;48.078;11.516;2022-12-07T13:00:15;24.50;;;0.70;;
3817;SDS011;1924;48.078;11.516;2022-12-07T13:02:47;24.40;;;0.70;;
3817;SDS011;1924;48.078;11.516;2022-12-07T13:05:18;24.30;;;0.70;;
3817;SDS011;1924;48.078;11.516;2022-12-07T13:07:51;24.47;;;0.70;;
3817;SDS011;1924;48.078;11.516;2022-12-07T13:10:24;24.47;;;0.70;;
3817;SDS011;1924;48.078;11.516;2022-12-07T13:12:59;24.50;;;0.70;;
3817;SDS011;1924;48.078;11.516;2022-12-07T13:15:36;24.50;;;0.70;;
3817;SDS011;1924;48.078;11.516;2022-12-07T13:18:16;24.60;;;0.70;;
3817;SDS011;1924;48.078;11.516;2022-12-07T13:20:52;24.60;;;0.70;;
3817;SDS011;1924;48.078;11.516;2022-12-07T13:23:30;24.50;;;0.70;;
3817;SDS011;1924;48.078;11.516;2022-12-07T13:26:04;24.60;;;0.70;;
3817;SDS011;1924;48.078;11.516;2022-12-07T13:28:40;24.60;;;0.73;;
3817;SDS011;1924;48.078;11.516;2022-12-07T13:31:13;24.70;;;0.70;;
3817;SDS011;1924;48.078;11.516;2022-12-07T13:33:56;24.50;;;0.70;;
3817;SDS011;1924;48.078;11.516;2022-12-07T13:36:25;24.67;;;0.70;;
3817;SDS011;1924;48.078;11.516;2022-12-07T13:38:54;24.53;;;0.70;;
3817;SDS011;1924;48.078;11.516;2022-12-07T13:41:22;24.40;;;0.73;;
3817;SDS011;1924;48.078;11.516;2022-12-07T13:43:51;24.50;;;0.80;;
3817;SDS011;1924;48.078;11.516;2022-12-07T13:46:26;24.50;;;0.70;;
3817;SDS011;1924;48.078;11.516;2022-12-07T13:48:58;24.57;;;0.70;;
3817;SDS011;1924;48.078;11.516;2022-12-07T13:51:27;24.50;;;0.70;;
3817;SDS011;1924;48.078;11.516;2022-12-07T13:53:55;24.37;;;0.70;;
3817;SDS011;1924;48.078;11.516;2022-12-07T13:56:26;24.60;;;0.70;;
3817;SDS011;1924;48.078;11.516;2022-12-07T13:58:58;24.50;;;0.70;;
3817;SDS011;1924;48.078;11.516;2022-12-07T14:01:25;24.50;;;0.70;;
3817;SDS011;1924;48.078;11.516;2022-12-07T14:03:52;24.50;;;0.70;;
3817;SDS011;1924;48.078;11.516;2022-12-07T14:06:23;24.53;;;0.70;;
3817;SDS011;1924;48.078;11.516;2022-12-07T14:09:06;24.50;;;0.70;;
3817;SDS011;1924;48.078;11.516;2022-12-07T14:11:34;24.50;;;0.70;;
3817;SDS011;1924;48.078;11.516;2022-12-07T14:14:02;24.50;;;0.70;;
3817;SDS011;1924;48.078;11.516;2022-12-07T14:16:29;24.50;;;0.70;;
3817;SDS011;1924;48.078;11.516;2022-12-07T14:18:58;24.50;;;0.70;;
3817;SDS011;1924;48.078;11.516;2022-12-07T14:21:27;24.53;;;0.70;;
3817;SDS011;1924;48.078;11.516;2022-12-07T14:24:06;24.60;;;0.70;;
3817;SDS011;1924;48.078;11.516;2022-12-07T14:26:37;24.67;;;0.70;;
3817;SDS011;1924;48.078;11.516;2022-12-07T14:29:21;24.60;;;0.70;;
3817;SDS011;1924;48.078;11.516;2022-12-07T14:31:56;24.67;;;0.70;;
3817;SDS011;1924;48.078;11.516;2022-12-07T14:34:24;24.50;;;0.70;;
3817;SDS011;1924;48.078;11.516;2022-12-07T14:36:51;24.50;;;0.70;;
3817;SDS011;1924;48.078;11.516;2022-12-07T14:39:20;24.50;;;0.70;;
3817;SDS011;1924;48.078;11.516;2022-12-07T14:41:46;24.30;;;0.70;;
3817;SDS011;1924;48.078;11.516;2022-12-07T14:44:16;24.47;;;0.70;;
3817;SDS011;1924;48.078;11.516;2022-12-07T14:46:44;24.50;;;0.70;;
3817;SDS011;1924;48.078;11.516;2022-12-07T14:49:11;24.53;;;0.70;;
3817;SDS011;1924;48.078;11.516;2022-12-07T14:51:38;24.20;;;0.70;;
3817;SDS011;1924;48.078;11.516;2022-12-07T14:54:06;24.40;;;0.70;;
3817;SDS011;1924;48.078;11.516;2022-12-07T14:56:39;24.37;;;0.70;;
3817;SDS011;1924;48.078;11.516;2022-12-07T14:59:06;24.30;;;0.70;;
3817;SDS011;1924;48.078;11.516;2022-12-07T15:01:33;24.37;;;0.70;;
3817;SDS011;1924;48.078;11.516;2022-12-07T15:04:00;24.30;;;0.80;;
3817;SDS011;1924;48.078;11.516;2022-12-07T15:06:27;24.30;;;0.80;;
3817;SDS011;1924;48.078;11.516;2022-12-07T15:08:53;24.40;;;0.70;;
3817;SDS011;1924;48.078;11.516;2022-12-07T15:11:21;24.33;;;0.70;;
3817;SDS011;1924;48.078;11.516;2022-12-07T15:13:49;24.00;;;0.70;;
3817;SDS011;1924;48.078;11.516;2022-12-07T15:16:35;24.30;;;0.70;;
3817;SDS011;1924;48.078;11.516;2022-12-07T15:19:04;24.30;;;0.70;;
3817;SDS011;1924;48.078;11.516;2022-12-07T15:21:32;24.20;;;0.70;;
3817;SDS011;1924;48.078;11.516;2022-12-07T15:23:58;24.40;;;0.70;;
3817;SDS011;1924;48.078;11.516;2022-12-07T15:26:25;24.30;;;0.70;;
3817;SDS011;1924;48.078;11.516;2022-12-07T15:28:53;24.40;;;0.70;;
3817;SDS011;1924;48.078;11.516;2022-12-07T15:31:20;24.40;;;0.70;;
3817;SDS011;1924;48.078;11.516;2022-12-07T15:33:47;24.30;;;0.70;;
3817;SDS011;1924;48.078;11.516;2022-12-07T15:36:17;24.20;;;0.70;;
3817;SDS011;1924;48.078;11.516;2022-12-07T15:38:46;24.37;;;0.70;;